sensor_id;sensor_type;location;lat;lon;timestamp;P1;durP1;ratioP1;P2;durP2;ratioP2
69047;SDS011;56119;50.118;8.642;2022-11-13T00:00:50;289.77;;;219.27;;
69047;SDS011;56119;50.118;8.642;2022-11-13T00:03:16;104.68;;;81.03;;
69047;SDS011;56119;50.118;8.642;2022-11-13T00:05:42;56.70;;;42.70;;
69047;SDS011;56119;50.118;8.642;2022-11-13T00:08:08;410.30;;;293.15;;
69047;SDS011;56119;50.118;8.642;2022-11-13T00:10:34;342.00;;;179.18;;
69047;SDS011;56119;50.118;8.642;2022-11-13T00:13:01;330.83;;;198.27;;
69047;SDS011;56119;50.118;8.642;2022-11-13T00:15:27;110.80;;;71.63;;
69047;SDS011;56119;50.118;8.642;2022-11-13T00:17:53;138.00;;;86.00;;
69047;SDS011;56119;50.118;8.642;2022-11-13T00:20:19;233.57;;;147.45;;
69047;SDS011;56119;50.118;8.642;2022-11-13T00:22:45;128.10;;;83.10;;
69047;SDS011;56119;50.118;8.642;2022-11-13T00:25:11;105.82;;;72.43;;
69047;SDS011;56119;50.118;8.642;2022-11-13T00:27:37;117.47;;;82.45;;
69047;SDS011;56119;50.118;8.642;2022-11-13T00:30:03;109.30;;;77.15;;
69047;SDS011;56119;50.118;8.642;2022-11-13T00:32:29;82.80;;;64.95;;
69047;SDS011;56119;50.118;8.642;2022-11-13T00:34:55;64.28;;;49.10;;
69047;SDS011;56119;50.118;8.642;2022-11-13T00:37:21;50.67;;;38.95;;
69047;SDS011;56119;50.118;8.642;2022-11-13T00:39:47;59.28;;;47.30;;
69047;SDS011;56119;50.118;8.642;2022-11-13T00:42:13;39.17;;;33.75;;
69047;SDS011;56119;50.118;8.642;2022-11-13T00:44:39;33.83;;;29.95;;
69047;SDS011;56119;50.118;8.642;2022-11-13T00:47:05;38.78;;;33.35;;
69047;SDS011;56119;50.118;8.642;2022-11-13T00:49:31;60.17;;;48.85;;
69047;SDS011;56119;50.118;8.642;2022-11-13T00:51:57;53.42;;;46.80;;
69047;SDS011;56119;50.118;8.642;2022-11-13T00:54:24;37.25;;;32.53;;
69047;SDS011;56119;50.118;8.642;2022-11-13T00:56:50;33.17;;;28.58;;
69047;SDS011;56119;50.118;8.642;2022-11-13T00:59:16;32.42;;;28.38;;
69047;SDS011;56119;50.118;8.642;2022-11-13T01:01:42;19.50;;;17.42;;
69047;SDS011;56119;50.118;8.642;2022-11-13T01:04:08;17.83;;;15.88;;
69047;SDS011;56119;50.118;8.642;2022-11-13T01:06:34;17.80;;;15.90;;
69047;SDS011;56119;50.118;8.642;2022-11-13T01:09:00;12.45;;;10.70;;
69047;SDS011;56119;50.118;8.642;2022-11-13T01:11:26;16.25;;;14.55;;
69047;SDS011;56119;50.118;8.642;2022-11-13T01:13:53;17.88;;;16.00;;
69047;SDS011;56119;50.118;8.642;2022-11-13T01:16:20;16.15;;;14.43;;
69047;SDS011;56119;50.118;8.642;2022-11-13T01:18:46;15.18;;;13.55;;
69047;SDS011;56119;50.118;8.642;2022-11-13T01:21:13;14.35;;;12.75;;
69047;SDS011;56119;50.118;8.642;2022-11-13T01:23:40;12.68;;;11.38;;
69047;SDS011;56119;50.118;8.642;2022-11-13T01:28:35;13.25;;;11.80;;
69047;SDS011;56119;50.118;8.642;2022-11-13T01:31:05;13.48;;;11.43;;
69047;SDS011;56119;50.118;8.642;2022-11-13T01:33:31;12.40;;;11.20;;
69047;SDS011;56119;50.118;8.642;2022-11-13T01:36:01;10.95;;;9.65;;
69047;SDS011;56119;50.118;8.642;2022-11-13T01:38:27;14.32;;;12.40;;
69047;SDS011;56119;50.118;8.642;2022-11-13T01:40:54;12.25;;;10.88;;
69047;SDS011;56119;50.118;8.642;2022-11-13T01:48:41;11.88;;;10.10;;
69047;SDS011;56119;50.118;8.642;2022-11-13T01:51:10;12.38;;;9.63;;
69047;SDS011;56119;50.118;8.642;2022-11-13T01:53:37;11.27;;;9.57;;
69047;SDS011;56119;50.118;8.642;2022-11-13T01:56:05;12.13;;;9.63;;
69047;SDS011;56119;50.118;8.642;2022-11-13T01:58:31;12.65;;;10.57;;
69047;SDS011;56119;50.118;8.642;2022-11-13T02:00:57;11.85;;;9.90;;
69047;SDS011;56119;50.118;8.642;2022-11-13T02:03:23;10.65;;;9.43;;
69047;SDS011;56119;50.118;8.642;2022-11-13T02:05:49;12.07;;;9.25;;
69047;SDS011;56119;50.118;8.642;2022-11-13T02:08:15;11.57;;;9.38;;
69047;SDS011;56119;50.118;8.642;2022-11-13T02:10:41;12.52;;;9.65;;
69047;SDS011;56119;50.118;8.642;2022-11-13T02:13:07;11.23;;;9.50;;
69047;SDS011;56119;50.118;8.642;2022-11-13T02:15:35;12.32;;;10.20;;
69047;SDS011;56119;50.118;8.642;2022-11-13T02:18:01;12.70;;;10.02;;
69047;SDS011;56119;50.118;8.642;2022-11-13T02:25:31;12.65;;;10.45;;
69047;SDS011;56119;50.118;8.642;2022-11-13T02:27:57;10.25;;;9.23;;
69047;SDS011;56119;50.118;8.642;2022-11-13T02:30:25;12.63;;;10.00;;
69047;SDS011;56119;50.118;8.642;2022-11-13T02:32:52;11.57;;;9.50;;
69047;SDS011;56119;50.118;8.642;2022-11-13T02:35:23;18.15;;;11.90;;
69047;SDS011;56119;50.118;8.642;2022-11-13T02:37:50;17.90;;;12.73;;
69047;SDS011;56119;50.118;8.642;2022-11-13T02:40:16;13.88;;;10.90;;
69047;SDS011;56119;50.118;8.642;2022-11-13T02:42:43;12.32;;;9.55;;
69047;SDS011;56119;50.118;8.642;2022-11-13T02:45:09;10.55;;;9.27;;
69047;SDS011;56119;50.118;8.642;2022-11-13T02:47:35;11.52;;;9.68;;
69047;SDS011;56119;50.118;8.642;2022-11-13T02:50:01;11.43;;;9.73;;
69047;SDS011;56119;50.118;8.642;2022-11-13T02:52:28;12.68;;;9.90;;
69047;SDS011;56119;50.118;8.642;2022-11-13T02:54:54;11.40;;;8.80;;
69047;SDS011;56119;50.118;8.642;2022-11-13T02:57:20;11.18;;;9.90;;
69047;SDS011;56119;50.118;8.642;2022-11-13T02:59:46;10.55;;;9.20;;
69047;SDS011;56119;50.118;8.642;2022-11-13T03:02:12;10.25;;;8.80;;
69047;SDS011;56119;50.118;8.642;2022-11-13T03:04:38;10.13;;;9.02;;
69047;SDS011;56119;50.118;8.642;2022-11-13T03:07:04;10.63;;;9.52;;
69047;SDS011;56119;50.118;8.642;2022-11-13T03:09:30;12.80;;;8.82;;
69047;SDS011;56119;50.118;8.642;2022-11-13T03:11:56;9.77;;;8.18;;
69047;SDS011;56119;50.118;8.642;2022-11-13T03:14:22;12.57;;;9.32;;
69047;SDS011;56119;50.118;8.642;2022-11-13T03:16:48;10.43;;;9.32;;
69047;SDS011;56119;50.118;8.642;2022-11-13T03:19:14;10.68;;;9.20;;
69047;SDS011;56119;50.118;8.642;2022-11-13T03:21:40;10.52;;;8.98;;
69047;SDS011;56119;50.118;8.642;2022-11-13T03:24:06;11.40;;;9.73;;
69047;SDS011;56119;50.118;8.642;2022-11-13T03:26:32;11.38;;;9.77;;
69047;SDS011;56119;50.118;8.642;2022-11-13T03:28:58;12.13;;;10.38;;
69047;SDS011;56119;50.118;8.642;2022-11-13T03:31:24;12.02;;;10.30;;
69047;SDS011;56119;50.118;8.642;2022-11-13T03:33:53;11.18;;;9.95;;
69047;SDS011;56119;50.118;8.642;2022-11-13T03:36:19;12.95;;;10.70;;
69047;SDS011;56119;50.118;8.642;2022-11-13T03:38:45;12.13;;;9.40;;
69047;SDS011;56119;50.118;8.642;2022-11-13T03:41:11;10.70;;;9.60;;
69047;SDS011;56119;50.118;8.642;2022-11-13T03:43:40;11.55;;;10.32;;
69047;SDS011;56119;50.118;8.642;2022-11-13T03:46:06;10.75;;;9.55;;
69047;SDS011;56119;50.118;8.642;2022-11-13T03:48:33;11.20;;;9.43;;
69047;SDS011;56119;50.118;8.642;2022-11-13T03:50:59;12.50;;;10.48;;
69047;SDS011;56119;50.118;8.642;2022-11-13T03:53:25;11.18;;;9.88;;
69047;SDS011;56119;50.118;8.642;2022-11-13T03:55:51;11.50;;;10.27;;
69047;SDS011;56119;50.118;8.642;2022-11-13T03:58:17;10.38;;;9.20;;
69047;SDS011;56119;50.118;8.642;2022-11-13T04:00:43;10.68;;;9.32;;
69047;SDS011;56119;50.118;8.642;2022-11-13T04:03:09;10.93;;;9.23;;
69047;SDS011;56119;50.118;8.642;2022-11-13T04:05:35;10.90;;;9.70;;
69047;SDS011;56119;50.118;8.642;2022-11-13T04:08:01;11.43;;;9.27;;
69047;SDS011;56119;50.118;8.642;2022-11-13T04:10:28;11.00;;;9.30;;
69047;SDS011;56119;50.118;8.642;2022-11-13T04:12:54;11.25;;;9.18;;
69047;SDS011;56119;50.118;8.642;2022-11-13T04:15:20;10.95;;;9.50;;
69047;SDS011;56119;50.118;8.642;2022-11-13T04:17:47;10.13;;;8.80;;
69047;SDS011;56119;50.118;8.642;2022-11-13T04:20:13;10.60;;;9.15;;
69047;SDS011;56119;50.118;8.642;2022-11-13T04:22:39;10.38;;;9.27;;
69047;SDS011;56119;50.118;8.642;2022-11-13T04:25:05;9.30;;;8.30;;
69047;SDS011;56119;50.118;8.642;2022-11-13T04:27:31;9.25;;;7.93;;
69047;SDS011;56119;50.118;8.642;2022-11-13T04:29:57;8.77;;;7.88;;
69047;SDS011;56119;50.118;8.642;2022-11-13T04:32:23;9.70;;;8.35;;
69047;SDS011;56119;50.118;8.642;2022-11-13T04:34:49;11.15;;;8.27;;
69047;SDS011;56119;50.118;8.642;2022-11-13T04:37:15;9.27;;;8.30;;
69047;SDS011;56119;50.118;8.642;2022-11-13T04:39:41;9.35;;;8.10;;
69047;SDS011;56119;50.118;8.642;2022-11-13T04:42:07;9.15;;;7.88;;
69047;SDS011;56119;50.118;8.642;2022-11-13T04:44:52;9.27;;;8.30;;
69047;SDS011;56119;50.118;8.642;2022-11-13T04:47:18;9.70;;;8.15;;
69047;SDS011;56119;50.118;8.642;2022-11-13T04:49:44;9.38;;;8.38;;
69047;SDS011;56119;50.118;8.642;2022-11-13T04:52:10;8.70;;;7.32;;
69047;SDS011;56119;50.118;8.642;2022-11-13T04:54:37;9.23;;;8.25;;
69047;SDS011;56119;50.118;8.642;2022-11-13T04:57:03;9.23;;;7.97;;
69047;SDS011;56119;50.118;8.642;2022-11-13T04:59:29;9.48;;;8.48;;
69047;SDS011;56119;50.118;8.642;2022-11-13T05:01:55;9.13;;;8.15;;
69047;SDS011;56119;50.118;8.642;2022-11-13T05:04:21;8.75;;;7.80;;
69047;SDS011;56119;50.118;8.642;2022-11-13T05:06:47;9.15;;;7.60;;
69047;SDS011;56119;50.118;8.642;2022-11-13T05:09:13;9.07;;;8.00;;
69047;SDS011;56119;50.118;8.642;2022-11-13T05:11:39;8.57;;;7.68;;
69047;SDS011;56119;50.118;8.642;2022-11-13T05:14:05;9.18;;;7.57;;
69047;SDS011;56119;50.118;8.642;2022-11-13T05:16:33;8.75;;;7.68;;
69047;SDS011;56119;50.118;8.642;2022-11-13T05:19:00;7.88;;;6.93;;
69047;SDS011;56119;50.118;8.642;2022-11-13T05:21:30;7.93;;;7.10;;
69047;SDS011;56119;50.118;8.642;2022-11-13T05:23:56;8.43;;;7.15;;
69047;SDS011;56119;50.118;8.642;2022-11-13T05:26:22;8.18;;;6.88;;
69047;SDS011;56119;50.118;8.642;2022-11-13T05:28:50;7.78;;;6.97;;
69047;SDS011;56119;50.118;8.642;2022-11-13T05:31:16;7.18;;;6.40;;
69047;SDS011;56119;50.118;8.642;2022-11-13T05:33:42;8.00;;;7.18;;
69047;SDS011;56119;50.118;8.642;2022-11-13T05:36:13;7.55;;;6.60;;
69047;SDS011;56119;50.118;8.642;2022-11-13T05:38:39;8.70;;;7.25;;
69047;SDS011;56119;50.118;8.642;2022-11-13T05:41:07;7.30;;;6.60;;
69047;SDS011;56119;50.118;8.642;2022-11-13T05:43:33;9.23;;;7.03;;
69047;SDS011;56119;50.118;8.642;2022-11-13T05:46:03;8.10;;;7.18;;
69047;SDS011;56119;50.118;8.642;2022-11-13T05:48:30;8.45;;;7.07;;
69047;SDS011;56119;50.118;8.642;2022-11-13T05:51:03;9.38;;;7.55;;
69047;SDS011;56119;50.118;8.642;2022-11-13T05:53:29;10.38;;;7.45;;
69047;SDS011;56119;50.118;8.642;2022-11-13T05:56:01;8.00;;;7.00;;
69047;SDS011;56119;50.118;8.642;2022-11-13T05:58:28;7.70;;;6.90;;
69047;SDS011;56119;50.118;8.642;2022-11-13T06:01:03;7.43;;;6.50;;
69047;SDS011;56119;50.118;8.642;2022-11-13T06:03:30;7.80;;;7.00;;
69047;SDS011;56119;50.118;8.642;2022-11-13T06:05:56;7.47;;;6.68;;
69047;SDS011;56119;50.118;8.642;2022-11-13T06:08:22;8.23;;;7.10;;
69047;SDS011;56119;50.118;8.642;2022-11-13T06:10:48;11.25;;;7.35;;
69047;SDS011;56119;50.118;8.642;2022-11-13T06:13:14;7.82;;;7.00;;
69047;SDS011;56119;50.118;8.642;2022-11-13T06:15:40;8.85;;;6.95;;
69047;SDS011;56119;50.118;8.642;2022-11-13T06:18:06;9.18;;;7.35;;
69047;SDS011;56119;50.118;8.642;2022-11-13T06:20:34;8.00;;;6.90;;
69047;SDS011;56119;50.118;8.642;2022-11-13T06:23:00;8.85;;;7.40;;
69047;SDS011;56119;50.118;8.642;2022-11-13T06:25:26;9.90;;;7.63;;
69047;SDS011;56119;50.118;8.642;2022-11-13T06:27:52;8.43;;;7.53;;
69047;SDS011;56119;50.118;8.642;2022-11-13T06:30:18;9.75;;;7.32;;
69047;SDS011;56119;50.118;8.642;2022-11-13T06:32:50;8.52;;;7.18;;
69047;SDS011;56119;50.118;8.642;2022-11-13T06:35:17;9.68;;;7.25;;
69047;SDS011;56119;50.118;8.642;2022-11-13T06:37:43;7.95;;;6.80;;
69047;SDS011;56119;50.118;8.642;2022-11-13T06:40:09;8.35;;;6.95;;
69047;SDS011;56119;50.118;8.642;2022-11-13T06:42:35;8.18;;;6.68;;
69047;SDS011;56119;50.118;8.642;2022-11-13T06:45:01;8.85;;;7.30;;
69047;SDS011;56119;50.118;8.642;2022-11-13T06:47:27;7.82;;;7.03;;
69047;SDS011;56119;50.118;8.642;2022-11-13T06:49:53;8.35;;;6.50;;
69047;SDS011;56119;50.118;8.642;2022-11-13T06:52:19;7.50;;;6.72;;
69047;SDS011;56119;50.118;8.642;2022-11-13T06:54:45;8.00;;;7.07;;
69047;SDS011;56119;50.118;8.642;2022-11-13T06:57:11;8.57;;;7.63;;
69047;SDS011;56119;50.118;8.642;2022-11-13T06:59:37;7.93;;;7.05;;
69047;SDS011;56119;50.118;8.642;2022-11-13T07:02:03;8.13;;;7.07;;
69047;SDS011;56119;50.118;8.642;2022-11-13T07:04:29;7.95;;;6.88;;
69047;SDS011;56119;50.118;8.642;2022-11-13T07:06:55;8.38;;;6.80;;
69047;SDS011;56119;50.118;8.642;2022-11-13T07:09:21;7.88;;;6.95;;
69047;SDS011;56119;50.118;8.642;2022-11-13T07:11:47;9.02;;;7.07;;
69047;SDS011;56119;50.118;8.642;2022-11-13T07:14:13;7.28;;;6.13;;
69047;SDS011;56119;50.118;8.642;2022-11-13T07:16:39;8.07;;;6.80;;
69047;SDS011;56119;50.118;8.642;2022-11-13T07:19:05;10.13;;;6.85;;
69047;SDS011;56119;50.118;8.642;2022-11-13T07:21:31;7.47;;;6.78;;
69047;SDS011;56119;50.118;8.642;2022-11-13T07:23:57;8.20;;;6.78;;
69047;SDS011;56119;50.118;8.642;2022-11-13T07:26:23;8.73;;;6.90;;
69047;SDS011;56119;50.118;8.642;2022-11-13T07:28:49;9.23;;;7.60;;
69047;SDS011;56119;50.118;8.642;2022-11-13T07:31:16;8.10;;;7.30;;
69047;SDS011;56119;50.118;8.642;2022-11-13T07:33:42;7.55;;;6.75;;
69047;SDS011;56119;50.118;8.642;2022-11-13T07:36:08;8.57;;;7.07;;
69047;SDS011;56119;50.118;8.642;2022-11-13T07:38:34;8.90;;;7.22;;
69047;SDS011;56119;50.118;8.642;2022-11-13T07:41:01;8.60;;;7.28;;
69047;SDS011;56119;50.118;8.642;2022-11-13T07:43:27;8.48;;;7.10;;
69047;SDS011;56119;50.118;8.642;2022-11-13T07:45:53;9.18;;;7.35;;
69047;SDS011;56119;50.118;8.642;2022-11-13T07:48:20;9.77;;;7.63;;
69047;SDS011;56119;50.118;8.642;2022-11-13T07:50:46;8.85;;;7.50;;
69047;SDS011;56119;50.118;8.642;2022-11-13T07:53:12;9.68;;;8.60;;
69047;SDS011;56119;50.118;8.642;2022-11-13T07:55:38;8.60;;;7.75;;
69047;SDS011;56119;50.118;8.642;2022-11-13T07:58:04;9.98;;;8.27;;
69047;SDS011;56119;50.118;8.642;2022-11-13T08:00:31;9.60;;;8.55;;
69047;SDS011;56119;50.118;8.642;2022-11-13T08:02:58;10.77;;;7.57;;
69047;SDS011;56119;50.118;8.642;2022-11-13T08:05:29;9.07;;;7.68;;
69047;SDS011;56119;50.118;8.642;2022-11-13T08:07:55;8.65;;;7.75;;
69047;SDS011;56119;50.118;8.642;2022-11-13T08:10:21;8.38;;;7.57;;
69047;SDS011;56119;50.118;8.642;2022-11-13T08:12:47;8.45;;;7.43;;
69047;SDS011;56119;50.118;8.642;2022-11-13T08:15:13;8.23;;;7.40;;
69047;SDS011;56119;50.118;8.642;2022-11-13T08:17:39;11.82;;;7.70;;
69047;SDS011;56119;50.118;8.642;2022-11-13T08:20:05;8.82;;;7.57;;
69047;SDS011;56119;50.118;8.642;2022-11-13T08:22:32;11.05;;;7.75;;
69047;SDS011;56119;50.118;8.642;2022-11-13T08:24:58;9.02;;;8.07;;
69047;SDS011;56119;50.118;8.642;2022-11-13T08:27:24;8.52;;;7.63;;
69047;SDS011;56119;50.118;8.642;2022-11-13T08:29:50;9.52;;;8.52;;
69047;SDS011;56119;50.118;8.642;2022-11-13T08:32:17;8.77;;;7.88;;
69047;SDS011;56119;50.118;8.642;2022-11-13T08:34:43;9.20;;;8.00;;
69047;SDS011;56119;50.118;8.642;2022-11-13T08:37:09;8.23;;;7.40;;
69047;SDS011;56119;50.118;8.642;2022-11-13T08:39:35;8.55;;;7.60;;
69047;SDS011;56119;50.118;8.642;2022-11-13T08:42:02;9.77;;;7.53;;
69047;SDS011;56119;50.118;8.642;2022-11-13T08:44:28;9.23;;;7.80;;
69047;SDS011;56119;50.118;8.642;2022-11-13T08:46:54;8.77;;;6.60;;
69047;SDS011;56119;50.118;8.642;2022-11-13T08:49:20;8.30;;;7.40;;
69047;SDS011;56119;50.118;8.642;2022-11-13T08:51:46;8.20;;;7.25;;
69047;SDS011;56119;50.118;8.642;2022-11-13T08:54:12;9.57;;;6.88;;
69047;SDS011;56119;50.118;8.642;2022-11-13T08:56:38;7.38;;;6.65;;
69047;SDS011;56119;50.118;8.642;2022-11-13T08:59:04;7.82;;;7.03;;
69047;SDS011;56119;50.118;8.642;2022-11-13T09:01:30;7.53;;;6.82;;
69047;SDS011;56119;50.118;8.642;2022-11-13T09:03:56;7.35;;;6.65;;
69047;SDS011;56119;50.118;8.642;2022-11-13T09:06:23;9.13;;;7.13;;
69047;SDS011;56119;50.118;8.642;2022-11-13T09:08:49;8.05;;;7.25;;
69047;SDS011;56119;50.118;8.642;2022-11-13T09:11:15;7.68;;;6.32;;
69047;SDS011;56119;50.118;8.642;2022-11-13T09:13:41;8.52;;;6.97;;
69047;SDS011;56119;50.118;8.642;2022-11-13T09:16:07;7.90;;;7.10;;
69047;SDS011;56119;50.118;8.642;2022-11-13T09:18:33;8.98;;;7.05;;
69047;SDS011;56119;50.118;8.642;2022-11-13T09:21:00;7.03;;;6.13;;
69047;SDS011;56119;50.118;8.642;2022-11-13T09:23:27;7.05;;;6.25;;
69047;SDS011;56119;50.118;8.642;2022-11-13T09:25:53;6.93;;;6.18;;
69047;SDS011;56119;50.118;8.642;2022-11-13T09:28:19;7.35;;;6.47;;
69047;SDS011;56119;50.118;8.642;2022-11-13T09:30:45;7.63;;;6.88;;
69047;SDS011;56119;50.118;8.642;2022-11-13T09:33:11;7.70;;;6.85;;
69047;SDS011;56119;50.118;8.642;2022-11-13T09:35:39;8.82;;;7.40;;
69047;SDS011;56119;50.118;8.642;2022-11-13T09:38:07;8.52;;;7.50;;
69047;SDS011;56119;50.118;8.642;2022-11-13T09:40:35;10.20;;;8.02;;
69047;SDS011;56119;50.118;8.642;2022-11-13T09:43:03;8.50;;;7.35;;
69047;SDS011;56119;50.118;8.642;2022-11-13T09:45:30;8.55;;;7.65;;
69047;SDS011;56119;50.118;8.642;2022-11-13T09:48:07;8.95;;;7.95;;
69047;SDS011;56119;50.118;8.642;2022-11-13T09:50:35;8.45;;;7.05;;
69047;SDS011;56119;50.118;8.642;2022-11-13T09:53:02;7.88;;;7.03;;
69047;SDS011;56119;50.118;8.642;2022-11-13T09:55:31;7.65;;;6.88;;
69047;SDS011;56119;50.118;8.642;2022-11-13T10:00:27;7.15;;;6.03;;
69047;SDS011;56119;50.118;8.642;2022-11-13T10:06:00;7.68;;;6.82;;
69047;SDS011;56119;50.118;8.642;2022-11-13T10:08:30;7.88;;;6.20;;
69047;SDS011;56119;50.118;8.642;2022-11-13T10:11:08;9.13;;;6.95;;
69047;SDS011;56119;50.118;8.642;2022-11-13T10:13:43;8.68;;;7.32;;
69047;SDS011;56119;50.118;8.642;2022-11-13T10:16:14;7.93;;;7.13;;
69047;SDS011;56119;50.118;8.642;2022-11-13T10:18:42;8.63;;;7.65;;
69047;SDS011;56119;50.118;8.642;2022-11-13T10:23:38;8.20;;;7.05;;
69047;SDS011;56119;50.118;8.642;2022-11-13T10:26:14;9.30;;;7.75;;
69047;SDS011;56119;50.118;8.642;2022-11-13T10:28:41;7.53;;;6.70;;
69047;SDS011;56119;50.118;8.642;2022-11-13T10:31:08;10.57;;;8.02;;
69047;SDS011;56119;50.118;8.642;2022-11-13T10:33:35;8.95;;;7.53;;
69047;SDS011;56119;50.118;8.642;2022-11-13T10:36:02;7.97;;;7.22;;
69047;SDS011;56119;50.118;8.642;2022-11-13T10:38:39;9.27;;;7.45;;
69047;SDS011;56119;50.118;8.642;2022-11-13T10:41:11;9.82;;;8.18;;
69047;SDS011;56119;50.118;8.642;2022-11-13T10:46:18;7.93;;;7.13;;
69047;SDS011;56119;50.118;8.642;2022-11-13T10:48:44;10.13;;;7.70;;
69047;SDS011;56119;50.118;8.642;2022-11-13T10:53:45;8.07;;;6.78;;
69047;SDS011;56119;50.118;8.642;2022-11-13T10:56:25;6.90;;;6.20;;
69047;SDS011;56119;50.118;8.642;2022-11-13T11:01:27;6.55;;;5.80;;
69047;SDS011;56119;50.118;8.642;2022-11-13T11:03:53;7.07;;;5.97;;
69047;SDS011;56119;50.118;8.642;2022-11-13T11:06:19;8.35;;;6.43;;
69047;SDS011;56119;50.118;8.642;2022-11-13T11:08:45;7.05;;;6.07;;
69047;SDS011;56119;50.118;8.642;2022-11-13T11:11:15;5.97;;;5.38;;
69047;SDS011;56119;50.118;8.642;2022-11-13T11:14:08;6.22;;;5.63;;
69047;SDS011;56119;50.118;8.642;2022-11-13T11:16:35;8.45;;;5.57;;
69047;SDS011;56119;50.118;8.642;2022-11-13T11:19:03;8.50;;;7.07;;
69047;SDS011;56119;50.118;8.642;2022-11-13T11:21:33;8.07;;;5.75;;
69047;SDS011;56119;50.118;8.642;2022-11-13T11:24:06;7.32;;;5.70;;
69047;SDS011;56119;50.118;8.642;2022-11-13T11:29:16;7.65;;;6.32;;
69047;SDS011;56119;50.118;8.642;2022-11-13T11:31:49;7.95;;;6.40;;
69047;SDS011;56119;50.118;8.642;2022-11-13T11:39:34;6.35;;;5.75;;
69047;SDS011;56119;50.118;8.642;2022-11-13T11:47:31;7.35;;;5.38;;
69047;SDS011;56119;50.118;8.642;2022-11-13T11:49:58;6.40;;;5.13;;
69047;SDS011;56119;50.118;8.642;2022-11-13T11:52:34;6.55;;;5.50;;
69047;SDS011;56119;50.118;8.642;2022-11-13T11:55:06;7.28;;;6.05;;
69047;SDS011;56119;50.118;8.642;2022-11-13T11:57:45;6.18;;;5.53;;
69047;SDS011;56119;50.118;8.642;2022-11-13T12:00:14;8.57;;;5.90;;
69047;SDS011;56119;50.118;8.642;2022-11-13T12:05:18;7.07;;;5.38;;
69047;SDS011;56119;50.118;8.642;2022-11-13T12:17:58;5.78;;;4.13;;
69047;SDS011;56119;50.118;8.642;2022-11-13T12:20:44;5.75;;;4.57;;
69047;SDS011;56119;50.118;8.642;2022-11-13T12:28:49;6.40;;;4.72;;
69047;SDS011;56119;50.118;8.642;2022-11-13T12:31:31;6.18;;;5.15;;
69047;SDS011;56119;50.118;8.642;2022-11-13T12:36:35;6.68;;;5.03;;
69047;SDS011;56119;50.118;8.642;2022-11-13T12:39:04;7.10;;;5.03;;
69047;SDS011;56119;50.118;8.642;2022-11-13T12:46:45;7.82;;;5.75;;
69047;SDS011;56119;50.118;8.642;2022-11-13T12:49:24;7.30;;;5.25;;
69047;SDS011;56119;50.118;8.642;2022-11-13T12:54:47;7.50;;;6.25;;
69047;SDS011;56119;50.118;8.642;2022-11-13T12:59:43;7.07;;;6.00;;
69047;SDS011;56119;50.118;8.642;2022-11-13T13:17:41;6.25;;;5.13;;
69047;SDS011;56119;50.118;8.642;2022-11-13T13:22:39;6.15;;;5.30;;
69047;SDS011;56119;50.118;8.642;2022-11-13T13:28:35;6.10;;;5.50;;
69047;SDS011;56119;50.118;8.642;2022-11-13T13:31:29;5.93;;;5.10;;
69047;SDS011;56119;50.118;8.642;2022-11-13T13:38:54;5.80;;;4.88;;
69047;SDS011;56119;50.118;8.642;2022-11-13T13:46:25;6.47;;;4.53;;
69047;SDS011;56119;50.118;8.642;2022-11-13T13:48:54;5.15;;;4.35;;
69047;SDS011;56119;50.118;8.642;2022-11-13T13:53:47;4.63;;;4.07;;
69047;SDS011;56119;50.118;8.642;2022-11-13T13:56:13;5.20;;;4.45;;
69047;SDS011;56119;50.118;8.642;2022-11-13T13:58:40;6.07;;;4.57;;
69047;SDS011;56119;50.118;8.642;2022-11-13T14:01:11;7.47;;;4.30;;
69047;SDS011;56119;50.118;8.642;2022-11-13T14:03:37;7.03;;;4.68;;
69047;SDS011;56119;50.118;8.642;2022-11-13T14:06:19;7.68;;;5.47;;
69047;SDS011;56119;50.118;8.642;2022-11-13T14:08:45;6.05;;;5.20;;
69047;SDS011;56119;50.118;8.642;2022-11-13T14:13:42;6.07;;;5.13;;
69047;SDS011;56119;50.118;8.642;2022-11-13T14:16:08;10.02;;;7.22;;
69047;SDS011;56119;50.118;8.642;2022-11-13T14:18:34;6.03;;;4.50;;
69047;SDS011;56119;50.118;8.642;2022-11-13T14:21:01;5.35;;;4.45;;
69047;SDS011;56119;50.118;8.642;2022-11-13T14:23:31;6.28;;;4.82;;
69047;SDS011;56119;50.118;8.642;2022-11-13T14:25:58;6.20;;;5.05;;
69047;SDS011;56119;50.118;8.642;2022-11-13T14:28:25;8.93;;;6.25;;
69047;SDS011;56119;50.118;8.642;2022-11-13T14:31:02;8.60;;;5.82;;
69047;SDS011;56119;50.118;8.642;2022-11-13T14:33:34;7.05;;;5.45;;
69047;SDS011;56119;50.118;8.642;2022-11-13T14:36:00;9.38;;;6.50;;
69047;SDS011;56119;50.118;8.642;2022-11-13T14:38:27;8.65;;;6.53;;
69047;SDS011;56119;50.118;8.642;2022-11-13T14:40:55;6.35;;;4.97;;
69047;SDS011;56119;50.118;8.642;2022-11-13T14:43:30;6.20;;;5.10;;
69047;SDS011;56119;50.118;8.642;2022-11-13T14:45:57;7.82;;;4.95;;
69047;SDS011;56119;50.118;8.642;2022-11-13T14:48:27;6.72;;;4.85;;
69047;SDS011;56119;50.118;8.642;2022-11-13T14:50:58;6.70;;;5.43;;
69047;SDS011;56119;50.118;8.642;2022-11-13T14:53:25;14.05;;;8.82;;
69047;SDS011;56119;50.118;8.642;2022-11-13T14:55:52;12.18;;;8.88;;
69047;SDS011;56119;50.118;8.642;2022-11-13T14:58:29;7.68;;;5.90;;
69047;SDS011;56119;50.118;8.642;2022-11-13T15:00:55;7.35;;;5.38;;
69047;SDS011;56119;50.118;8.642;2022-11-13T15:03:23;6.55;;;5.25;;
69047;SDS011;56119;50.118;8.642;2022-11-13T15:05:49;6.70;;;5.28;;
69047;SDS011;56119;50.118;8.642;2022-11-13T15:08:15;7.90;;;6.10;;
69047;SDS011;56119;50.118;8.642;2022-11-13T15:10:41;7.70;;;6.22;;
69047;SDS011;56119;50.118;8.642;2022-11-13T15:13:14;7.93;;;5.90;;
69047;SDS011;56119;50.118;8.642;2022-11-13T15:15:40;8.88;;;6.82;;
69047;SDS011;56119;50.118;8.642;2022-11-13T15:18:08;7.32;;;6.13;;
69047;SDS011;56119;50.118;8.642;2022-11-13T15:20:38;8.40;;;6.28;;
69047;SDS011;56119;50.118;8.642;2022-11-13T15:23:07;6.35;;;5.35;;
69047;SDS011;56119;50.118;8.642;2022-11-13T15:25:33;7.85;;;6.10;;
69047;SDS011;56119;50.118;8.642;2022-11-13T15:27:59;8.95;;;6.93;;
69047;SDS011;56119;50.118;8.642;2022-11-13T15:30:25;6.95;;;6.20;;
69047;SDS011;56119;50.118;8.642;2022-11-13T15:32:54;7.63;;;6.20;;
69047;SDS011;56119;50.118;8.642;2022-11-13T15:35:21;8.70;;;6.22;;
69047;SDS011;56119;50.118;8.642;2022-11-13T15:37:47;10.25;;;6.85;;
69047;SDS011;56119;50.118;8.642;2022-11-13T15:40:13;9.02;;;6.45;;
69047;SDS011;56119;50.118;8.642;2022-11-13T15:42:40;8.60;;;6.15;;
69047;SDS011;56119;50.118;8.642;2022-11-13T15:45:11;8.80;;;7.00;;
69047;SDS011;56119;50.118;8.642;2022-11-13T15:47:38;7.75;;;6.72;;
69047;SDS011;56119;50.118;8.642;2022-11-13T15:50:04;11.98;;;6.95;;
69047;SDS011;56119;50.118;8.642;2022-11-13T15:52:31;8.30;;;6.53;;
69047;SDS011;56119;50.118;8.642;2022-11-13T15:54:58;10.77;;;7.72;;
69047;SDS011;56119;50.118;8.642;2022-11-13T15:57:24;8.30;;;6.65;;
69047;SDS011;56119;50.118;8.642;2022-11-13T15:59:51;9.45;;;7.50;;
69047;SDS011;56119;50.118;8.642;2022-11-13T16:02:17;11.68;;;7.95;;
69047;SDS011;56119;50.118;8.642;2022-11-13T16:04:43;11.25;;;8.20;;
69047;SDS011;56119;50.118;8.642;2022-11-13T16:07:16;12.80;;;10.00;;
69047;SDS011;56119;50.118;8.642;2022-11-13T16:09:43;12.52;;;8.45;;
69047;SDS011;56119;50.118;8.642;2022-11-13T16:12:10;11.52;;;8.23;;
69047;SDS011;56119;50.118;8.642;2022-11-13T16:14:36;11.90;;;9.15;;
69047;SDS011;56119;50.118;8.642;2022-11-13T16:17:04;12.27;;;8.73;;
69047;SDS011;56119;50.118;8.642;2022-11-13T16:19:30;12.27;;;8.55;;
69047;SDS011;56119;50.118;8.642;2022-11-13T16:21:56;9.77;;;7.82;;
69047;SDS011;56119;50.118;8.642;2022-11-13T16:24:22;9.05;;;7.68;;
69047;SDS011;56119;50.118;8.642;2022-11-13T16:26:50;11.15;;;8.52;;
69047;SDS011;56119;50.118;8.642;2022-11-13T16:29:20;12.43;;;8.05;;
69047;SDS011;56119;50.118;8.642;2022-11-13T16:31:46;9.63;;;8.23;;